createdAt,value
2018-04-08T00:00:40.337Z,18.08
2018-04-08T00:01:40.365Z,18.07
2018-04-08T00:02:40.303Z,18.07
2018-04-08T00:03:40.366Z,18.05
2018-04-08T00:04:40.360Z,18.05
2018-04-08T00:05:40.319Z,18.08
2018-04-08T00:06:40.589Z,18.04
2018-04-08T00:07:40.326Z,18.02
2018-04-08T00:08:40.337Z,18.07
2018-04-08T00:09:40.347Z,18.04
2018-04-08T00:10:40.346Z,18.05
2018-04-08T00:11:40.362Z,18.05
2018-04-08T00:12:40.293Z,18.04
2018-04-08T00:13:40.324Z,18.05
2018-04-08T00:14:40.295Z,18.07
2018-04-08T00:15:40.340Z,18.04
2018-04-08T00:16:40.352Z,18.05
2018-04-08T00:17:40.351Z,18.02
2018-04-08T00:18:40.335Z,18.04
2018-04-08T00:19:40.319Z,18.05
2018-04-08T00:20:40.329Z,18.05
2018-04-08T00:21:40.333Z,18.01
2018-04-08T00:22:40.349Z,18.04
2018-04-08T00:23:40.364Z,18.05
2018-04-08T00:24:40.319Z,18.01
2018-04-08T00:25:40.337Z,18.05
2018-04-08T00:26:40.334Z,18.04
2018-04-08T00:27:40.332Z,18.04
2018-04-08T00:28:40.322Z,18.01
2018-04-08T00:29:40.327Z,18.04
2018-04-08T00:30:40.319Z,18.02
2018-04-08T00:31:40.330Z,18.01
2018-04-08T00:32:40.386Z,18.02
2018-04-08T00:33:40.309Z,18
2018-04-08T00:34:40.406Z,18.02
2018-04-08T00:35:40.439Z,18.02
2018-04-08T00:36:40.296Z,18
2018-04-08T00:37:40.306Z,18.02
2018-04-08T00:38:40.323Z,18.01
2018-04-08T00:39:40.321Z,18
2018-04-08T00:40:40.317Z,18
2018-04-08T00:41:40.284Z,18.01
2018-04-08T00:42:40.328Z,18
2018-04-08T00:43:40.342Z,18.01
2018-04-08T00:44:40.353Z,18.01
2018-04-08T00:45:40.335Z,18
2018-04-08T00:46:40.319Z,17.98
2018-04-08T00:47:40.317Z,18.01
2018-04-08T00:48:40.348Z,17.98
2018-04-08T00:49:40.355Z,17.98
2018-04-08T00:50:40.453Z,18
2018-04-08T00:51:40.331Z,17.98
2018-04-08T00:52:40.317Z,17.98
2018-04-08T00:53:40.297Z,18.01
2018-04-08T00:54:40.313Z,17.98
2018-04-08T00:55:40.321Z,18
2018-04-08T00:56:40.339Z,18.01
2018-04-08T00:57:40.349Z,17.98
2018-04-08T00:58:40.308Z,17.98
2018-04-08T00:59:40.335Z,18
2018-04-08T01:00:40.348Z,17.98
2018-04-08T01:01:40.304Z,17.98
2018-04-08T01:02:40.280Z,17.98
2018-04-08T01:03:40.335Z,17.95
2018-04-08T01:04:40.316Z,18
2018-04-08T01:05:40.324Z,17.98
2018-04-08T01:06:40.343Z,17.95
2018-04-08T01:07:40.316Z,17.98
2018-04-08T01:08:40.319Z,17.95
2018-04-08T01:09:40.308Z,17.97
2018-04-08T01:10:40.318Z,17.98
2018-04-08T01:11:40.314Z,17.97
2018-04-08T01:12:40.329Z,17.94
2018-04-08T01:13:40.346Z,17.98
2018-04-08T01:14:40.313Z,17.97
2018-04-08T01:15:40.302Z,17.94
2018-04-08T01:16:40.372Z,17.95
2018-04-08T01:17:40.333Z,17.97
2018-04-08T01:18:40.305Z,17.94
2018-04-08T01:19:40.332Z,17.97
2018-04-08T01:20:40.326Z,17.95
2018-04-08T01:21:40.315Z,17.95
2018-04-08T01:22:40.406Z,17.95
2018-04-08T01:23:40.305Z,17.97
2018-04-08T01:24:40.313Z,17.95
2018-04-08T01:25:40.316Z,17.94
2018-04-08T01:26:40.399Z,17.94
2018-04-08T01:27:40.310Z,17.91
2018-04-08T01:28:40.337Z,17.93
2018-04-08T01:29:40.324Z,17.95
2018-04-08T01:30:40.328Z,17.94
2018-04-08T01:31:40.319Z,17.93
2018-04-08T01:32:40.298Z,17.94
2018-04-08T01:33:40.282Z,17.91
2018-04-08T01:34:40.320Z,17.94
2018-04-08T01:35:40.320Z,17.94
2018-04-08T01:36:40.314Z,17.93
2018-04-08T01:37:40.312Z,17.93
2018-04-08T01:38:40.313Z,17.93
2018-04-08T01:39:40.298Z,17.91
2018-04-08T01:40:40.299Z,17.93
2018-04-08T01:41:40.307Z,17.93
2018-04-08T01:42:40.301Z,17.91
2018-04-08T01:43:40.277Z,17.91
2018-04-08T01:44:40.307Z,17.93
2018-04-08T01:45:40.296Z,17.89
2018-04-08T01:46:40.301Z,17.93
2018-04-08T01:47:40.305Z,17.91
2018-04-08T01:48:40.281Z,17.94
2018-04-08T01:49:40.291Z,17.89
2018-04-08T01:50:40.325Z,17.94
2018-04-08T01:51:40.298Z,17.89
2018-04-08T01:52:40.322Z,17.89
2018-04-08T01:53:40.254Z,17.91
2018-04-08T01:54:40.286Z,17.91
2018-04-08T01:55:40.300Z,17.91
2018-04-08T01:56:40.306Z,17.89
2018-04-08T01:57:40.338Z,17.87
2018-04-08T01:58:40.277Z,17.89
2018-04-08T01:59:40.263Z,17.91
2018-04-08T02:00:40.267Z,17.88
2018-04-08T02:01:40.308Z,17.91
2018-04-08T02:02:40.291Z,17.93
2018-04-08T02:03:40.307Z,17.89
2018-04-08T02:04:40.294Z,17.89
2018-04-08T02:05:40.255Z,17.89
2018-04-08T02:06:40.273Z,17.88
2018-04-08T02:07:40.290Z,17.88
2018-04-08T02:08:40.304Z,17.89
2018-04-08T02:09:40.299Z,17.87
2018-04-08T02:10:40.273Z,17.88
2018-04-08T02:11:40.258Z,17.89
2018-04-08T02:12:40.307Z,17.87
2018-04-08T02:13:40.277Z,17.88
2018-04-08T02:14:40.283Z,17.89
2018-04-08T02:15:40.283Z,17.88
2018-04-08T02:16:40.279Z,17.89
2018-04-08T02:17:40.315Z,17.89
2018-04-08T02:18:40.294Z,17.87
2018-04-08T02:19:40.338Z,17.87
2018-04-08T02:20:40.312Z,17.88
2018-04-08T02:21:40.335Z,17.88
2018-04-08T02:22:40.292Z,17.88
2018-04-08T02:23:40.302Z,17.87
2018-04-08T02:24:40.353Z,17.87
2018-04-08T02:25:40.277Z,17.87
2018-04-08T02:26:40.263Z,17.87
2018-04-08T02:27:40.289Z,17.84
2018-04-08T02:28:40.292Z,17.87
2018-04-08T02:29:40.290Z,17.87
2018-04-08T02:30:40.299Z,17.84
2018-04-08T02:31:40.282Z,17.88
2018-04-08T02:32:40.296Z,17.87
2018-04-08T02:33:40.253Z,17.84
2018-04-08T02:34:40.291Z,17.85
2018-04-08T02:35:40.393Z,17.87
2018-04-08T02:36:40.381Z,17.84
2018-04-08T02:37:40.302Z,17.85
2018-04-08T02:38:40.289Z,17.84
2018-04-08T02:39:40.394Z,17.85
2018-04-08T02:40:40.298Z,17.87
2018-04-08T02:41:40.310Z,17.84
2018-04-08T02:42:40.257Z,17.82
2018-04-08T02:43:40.333Z,17.84
2018-04-08T02:44:40.276Z,17.85
2018-04-08T02:45:40.271Z,17.82
2018-04-08T02:46:40.295Z,17.84
2018-04-08T02:47:40.311Z,17.82
2018-04-08T02:48:40.316Z,17.84
2018-04-08T02:49:40.291Z,17.82
2018-04-08T02:50:40.317Z,17.84
2018-04-08T02:51:40.273Z,17.82
2018-04-08T02:52:40.319Z,17.84
2018-04-08T02:53:40.341Z,17.84
2018-04-08T02:54:40.311Z,17.82
2018-04-08T02:55:40.324Z,17.84
2018-04-08T02:56:40.312Z,17.82
2018-04-08T02:57:40.325Z,17.81
2018-04-08T02:58:40.266Z,17.82
2018-04-08T02:59:40.283Z,17.84
2018-04-08T03:00:40.333Z,17.81
2018-04-08T03:01:40.305Z,17.81
2018-04-08T03:02:40.283Z,17.82
2018-04-08T03:03:40.281Z,17.81
2018-04-08T03:04:40.304Z,17.85
2018-04-08T03:05:40.313Z,17.84
2018-04-08T03:06:40.295Z,17.81
2018-04-08T03:07:40.321Z,17.82
2018-04-08T03:08:40.341Z,17.82
2018-04-08T03:09:40.305Z,17.8
2018-04-08T03:10:40.282Z,17.82
2018-04-08T03:11:40.335Z,17.82
2018-04-08T03:12:40.265Z,17.81
2018-04-08T03:13:40.108Z,17.81
2018-04-08T03:14:40.237Z,17.81
2018-04-08T03:15:40.296Z,17.81
2018-04-08T03:16:40.554Z,17.81
2018-04-08T03:17:40.273Z,17.81
2018-04-08T03:18:40.266Z,17.81
2018-04-08T03:19:40.279Z,17.8
2018-04-08T03:20:40.286Z,17.84
2018-04-08T03:21:40.295Z,17.81
2018-04-08T03:22:40.303Z,17.81
2018-04-08T03:23:40.268Z,17.82
2018-04-08T03:24:40.263Z,17.78
2018-04-08T03:25:40.278Z,17.81
2018-04-08T03:26:40.280Z,17.81
2018-04-08T03:27:40.273Z,17.78
2018-04-08T03:28:40.267Z,17.82
2018-04-08T03:29:40.277Z,17.78
2018-04-08T03:30:40.322Z,17.8
2018-04-08T03:31:40.277Z,17.78
2018-04-08T03:32:40.264Z,17.78
2018-04-08T03:33:40.256Z,17.81
2018-04-08T03:34:40.312Z,17.81
2018-04-08T03:35:40.266Z,17.78
2018-04-08T03:36:40.273Z,17.78
2018-04-08T03:37:40.310Z,17.81
2018-04-08T03:38:40.595Z,17.81
2018-04-08T03:39:40.227Z,17.77
2018-04-08T03:40:40.293Z,17.77
2018-04-08T03:41:40.268Z,17.8
2018-04-08T03:42:40.284Z,17.77
2018-04-08T03:43:40.251Z,17.78
2018-04-08T03:44:40.293Z,17.78
2018-04-08T03:45:40.237Z,17.76
2018-04-08T03:46:40.278Z,17.78
2018-04-08T03:47:40.271Z,17.78
2018-04-08T03:48:40.271Z,17.77
2018-04-08T03:49:40.274Z,17.78
2018-04-08T03:50:40.277Z,17.78
2018-04-08T03:51:40.238Z,17.76
2018-04-08T03:52:40.257Z,17.78
2018-04-08T03:53:40.254Z,17.8
2018-04-08T03:54:40.267Z,17.77
2018-04-08T03:55:40.256Z,17.78
2018-04-08T03:56:40.263Z,17.78
2018-04-08T03:57:40.263Z,17.78
2018-04-08T03:58:40.249Z,17.8
2018-04-08T03:59:40.229Z,17.8
2018-04-08T04:00:40.267Z,17.8
2018-04-08T04:01:40.304Z,17.81
2018-04-08T04:02:40.301Z,17.8
2018-04-08T04:03:40.253Z,17.8
2018-04-08T04:04:40.263Z,17.82
2018-04-08T04:05:40.241Z,17.81
2018-04-08T04:06:40.251Z,17.82
2018-04-08T04:07:40.249Z,17.84
2018-04-08T04:08:40.253Z,17.82
2018-04-08T04:09:40.238Z,17.87
2018-04-08T04:10:40.254Z,17.88
2018-04-08T04:11:40.271Z,17.89
2018-04-08T04:12:40.279Z,17.91
2018-04-08T04:13:40.301Z,17.94
2018-04-08T04:14:40.257Z,17.95
2018-04-08T04:15:40.269Z,17.97
2018-04-08T04:16:40.256Z,17.97
2018-04-08T04:17:40.230Z,17.98
2018-04-08T04:18:40.263Z,18.02
2018-04-08T04:19:40.245Z,18
2018-04-08T04:20:41.685Z,18.02
2018-04-08T04:21:40.225Z,18.05
2018-04-08T04:22:40.255Z,18.04
2018-04-08T04:23:40.269Z,18.04
2018-04-08T04:24:40.239Z,18.08
2018-04-08T04:25:40.243Z,18.08
2018-04-08T04:26:40.284Z,18.09
2018-04-08T04:27:40.265Z,18.12
2018-04-08T04:28:40.224Z,18.11
2018-04-08T04:29:40.254Z,18.12
2018-04-08T04:30:40.262Z,18.15
2018-04-08T04:31:40.239Z,18.16
2018-04-08T04:32:40.249Z,18.15
2018-04-08T04:33:40.244Z,18.21
2018-04-08T04:34:40.254Z,18.18
2018-04-08T04:35:40.255Z,18.18
2018-04-08T04:36:40.350Z,18.21
2018-04-08T04:37:40.517Z,18.25
2018-04-08T04:38:40.251Z,18.22
2018-04-08T04:39:40.249Z,18.28
2018-04-08T04:40:40.236Z,18.26
2018-04-08T04:41:40.271Z,18.25
2018-04-08T04:42:40.307Z,18.28
2018-04-08T04:43:40.244Z,18.26
2018-04-08T04:44:40.274Z,18.29
2018-04-08T04:45:40.456Z,18.29
2018-04-08T04:46:40.258Z,18.29
2018-04-08T04:47:40.267Z,18.29
2018-04-08T04:48:40.236Z,18.3
2018-04-08T04:49:40.250Z,18.29
2018-04-08T04:50:40.224Z,18.3
2018-04-08T04:51:40.301Z,18.32
2018-04-08T04:52:40.247Z,18.33
2018-04-08T04:53:40.216Z,18.33
2018-04-08T04:54:40.239Z,18.32
2018-04-08T04:55:40.223Z,18.3
2018-04-08T04:56:40.252Z,18.33
2018-04-08T04:57:40.215Z,18.35
2018-04-08T04:58:40.296Z,18.35
2018-04-08T04:59:40.302Z,18.35
2018-04-08T05:00:40.249Z,18.36
2018-04-08T05:01:40.259Z,18.36
2018-04-08T05:02:40.236Z,18.37
2018-04-08T05:03:40.557Z,18.37
2018-04-08T05:04:40.216Z,18.35
2018-04-08T05:05:40.228Z,18.35
2018-04-08T05:06:40.237Z,18.36
2018-04-08T05:07:40.252Z,18.37
2018-04-08T05:08:40.260Z,18.35
2018-04-08T05:09:40.277Z,18.35
2018-04-08T05:10:40.251Z,18.36
2018-04-08T05:11:40.227Z,18.35
2018-04-08T05:12:40.252Z,18.37
2018-04-08T05:13:40.305Z,18.37
2018-04-08T05:14:40.212Z,18.35
2018-04-08T05:15:40.222Z,18.37
2018-04-08T05:16:40.247Z,18.35
2018-04-08T05:17:40.223Z,18.39
2018-04-08T05:18:40.228Z,18.37
2018-04-08T05:19:40.238Z,18.36
2018-04-08T05:20:40.259Z,18.39
2018-04-08T05:21:40.230Z,18.35
2018-04-08T05:22:40.233Z,18.35
2018-04-08T05:23:40.220Z,18.36
2018-04-08T05:24:40.235Z,18.37
2018-04-08T05:25:40.234Z,18.36
2018-04-08T05:26:40.253Z,18.35
2018-04-08T05:27:40.238Z,18.35
2018-04-08T05:28:40.259Z,18.33
2018-04-08T05:29:40.275Z,18.33
2018-04-08T05:30:40.260Z,18.35
2018-04-08T05:31:40.256Z,18.35
2018-04-08T05:32:40.217Z,18.36
2018-04-08T05:33:40.244Z,18.36
2018-04-08T05:34:40.230Z,18.36
2018-04-08T05:35:40.214Z,18.36
2018-04-08T05:36:40.205Z,18.35
2018-04-08T05:37:40.267Z,18.33
2018-04-08T05:38:40.202Z,18.35
2018-04-08T05:39:40.240Z,18.33
2018-04-08T05:40:40.260Z,18.33
2018-04-08T05:41:40.249Z,18.33
2018-04-08T05:42:40.217Z,18.3
2018-04-08T05:43:40.238Z,18.32
2018-04-08T05:44:40.292Z,18.35
2018-04-08T05:45:40.233Z,18.3
2018-04-08T05:46:40.246Z,18.32
2018-04-08T05:47:40.247Z,18.33
2018-04-08T05:48:40.256Z,18.32
2018-04-08T05:49:40.233Z,18.33
2018-04-08T05:50:40.240Z,18.32
2018-04-08T05:51:40.236Z,18.32
2018-04-08T05:52:40.250Z,18.3
2018-04-08T05:53:40.222Z,18.3
2018-04-08T05:54:40.185Z,18.3
2018-04-08T05:55:40.201Z,18.3
2018-04-08T05:56:40.215Z,18.33
2018-04-08T05:57:40.191Z,18.3
2018-04-08T05:58:40.246Z,18.32
2018-04-08T05:59:40.198Z,18.3
2018-04-08T06:00:40.231Z,18.29
2018-04-08T06:01:40.202Z,18.32
2018-04-08T06:02:40.225Z,18.29
2018-04-08T06:03:40.250Z,18.3
2018-04-08T06:04:40.237Z,18.29
2018-04-08T06:05:40.249Z,18.29
2018-04-08T06:06:40.238Z,18.28
2018-04-08T06:07:40.277Z,18.29
2018-04-08T06:08:40.190Z,18.28
2018-04-08T06:09:40.211Z,18.29
2018-04-08T06:10:40.262Z,18.3
2018-04-08T06:11:40.220Z,18.3
2018-04-08T06:12:40.207Z,18.28
2018-04-08T06:13:40.257Z,18.29
2018-04-08T06:14:40.215Z,18.3
2018-04-08T06:15:40.544Z,18.28
2018-04-08T06:16:40.197Z,18.29
2018-04-08T06:17:40.678Z,18.26
2018-04-08T06:18:40.204Z,18.28
2018-04-08T06:19:40.228Z,18.26
2018-04-08T06:20:40.238Z,18.28
2018-04-08T06:21:40.263Z,18.29
2018-04-08T06:22:40.194Z,18.28
2018-04-08T06:23:40.189Z,18.26
2018-04-08T06:24:40.212Z,18.28
2018-04-08T06:25:40.243Z,18.28
2018-04-08T06:26:40.188Z,18.28
2018-04-08T06:27:40.222Z,18.26
2018-04-08T06:28:40.277Z,18.29
2018-04-08T06:29:40.187Z,18.28
2018-04-08T06:30:40.264Z,18.26
2018-04-08T06:31:40.225Z,18.28
2018-04-08T06:32:40.212Z,18.28
2018-04-08T06:33:40.311Z,18.25
2018-04-08T06:34:40.245Z,18.26
2018-04-08T06:35:40.196Z,18.26
2018-04-08T06:36:40.217Z,18.25
2018-04-08T06:37:40.316Z,18.28
2018-04-08T06:38:40.273Z,18.28
2018-04-08T06:39:40.195Z,18.26
2018-04-08T06:40:40.206Z,18.28
2018-04-08T06:41:40.166Z,18.28
2018-04-08T06:42:40.208Z,18.25
2018-04-08T06:43:40.213Z,18.28
2018-04-08T06:44:40.215Z,18.28
2018-04-08T06:45:40.231Z,18.25
2018-04-08T06:46:40.213Z,18.26
2018-04-08T06:47:40.209Z,18.25
2018-04-08T06:48:40.217Z,18.26
2018-04-08T06:49:40.213Z,18.25
2018-04-08T06:50:40.230Z,18.26
2018-04-08T06:51:40.225Z,18.25
2018-04-08T06:52:40.214Z,18.28
2018-04-08T06:53:40.231Z,18.25
2018-04-08T06:54:40.214Z,18.25
2018-04-08T06:55:40.416Z,18.26
2018-04-08T06:56:40.207Z,18.26
2018-04-08T06:57:40.228Z,18.23
2018-04-08T06:58:40.210Z,18.26
2018-04-08T06:59:40.222Z,18.25
2018-04-08T07:00:40.250Z,18.25
2018-04-08T07:01:40.185Z,18.25
2018-04-08T07:02:40.214Z,18.28
2018-04-08T07:03:40.234Z,18.23
2018-04-08T07:04:40.203Z,18.25
2018-04-08T07:05:40.227Z,18.28
2018-04-08T07:06:40.198Z,18.25
2018-04-08T07:07:40.213Z,18.28
2018-04-08T07:08:40.224Z,18.25
2018-04-08T07:09:40.179Z,18.26
2018-04-08T07:10:40.261Z,18.26
2018-04-08T07:11:40.184Z,18.26
2018-04-08T07:12:40.223Z,18.25
2018-04-08T07:13:40.200Z,18.25
2018-04-08T07:14:40.216Z,18.26
2018-04-08T07:15:40.186Z,18.25
2018-04-08T07:16:40.226Z,18.28
2018-04-08T07:17:40.220Z,18.26
2018-04-08T07:18:40.212Z,18.25
2018-04-08T07:19:40.174Z,18.26
2018-04-08T07:20:40.191Z,18.25
2018-04-08T07:21:40.290Z,18.25
2018-04-08T07:22:40.184Z,18.25
2018-04-08T07:23:40.201Z,18.26
2018-04-08T07:24:40.933Z,18.25
2018-04-08T07:25:40.193Z,18.25
2018-04-08T07:26:40.270Z,18.28
2018-04-08T07:27:40.234Z,18.22
2018-04-08T07:28:40.215Z,18.22
2018-04-08T07:29:40.241Z,18.23
2018-04-08T07:30:40.256Z,18.25
2018-04-08T07:31:40.169Z,18.26
2018-04-08T07:32:40.515Z,18.25
2018-04-08T07:33:40.204Z,18.26
2018-04-08T07:34:40.190Z,18.26
2018-04-08T07:35:40.176Z,18.25
2018-04-08T07:36:40.269Z,18.23
2018-04-08T07:37:40.205Z,18.26
2018-04-08T07:38:40.180Z,18.23
2018-04-08T07:39:40.191Z,18.22
2018-04-08T07:40:40.189Z,18.25
2018-04-08T07:41:40.253Z,18.19
2018-04-08T07:42:40.200Z,18.13
2018-04-08T07:43:40.197Z,18.13
2018-04-08T07:44:40.544Z,18.15
2018-04-08T07:45:40.138Z,18.07
2018-04-08T07:46:40.151Z,18.08
2018-04-08T07:47:40.221Z,18.08
2018-04-08T07:48:40.180Z,18.02
2018-04-08T07:49:40.200Z,18.04
2018-04-08T07:50:40.185Z,18.04
2018-04-08T07:51:40.189Z,18
2018-04-08T07:52:40.208Z,18.01
2018-04-08T07:53:40.194Z,18.01
2018-04-08T07:54:40.225Z,17.97
2018-04-08T07:55:40.210Z,18
2018-04-08T07:56:40.184Z,17.98
2018-04-08T07:57:40.172Z,17.95
2018-04-08T07:58:40.181Z,17.95
2018-04-08T07:59:40.185Z,18
2018-04-08T08:00:40.189Z,18.01
2018-04-08T08:01:40.320Z,18.07
2018-04-08T08:02:40.190Z,18.05
2018-04-08T08:03:40.067Z,18.08
2018-04-08T08:04:40.202Z,18.12
2018-04-08T08:05:40.253Z,18.11
2018-04-08T08:06:40.183Z,18.13
2018-04-08T08:07:40.206Z,18.16
2018-04-08T08:08:40.308Z,18.19
2018-04-08T08:09:40.183Z,18.21
2018-04-08T08:10:40.537Z,18.23
2018-04-08T08:11:40.168Z,18.22
2018-04-08T08:12:40.204Z,18.21
2018-04-08T08:13:40.192Z,18.21
2018-04-08T08:14:40.205Z,18.19
2018-04-08T08:15:40.206Z,18.19
2018-04-08T08:16:40.171Z,18.21
2018-04-08T08:17:40.180Z,18.21
2018-04-08T08:18:40.217Z,18.18
2018-04-08T08:19:40.181Z,18.21
2018-04-08T08:20:40.207Z,18.22
2018-04-08T08:21:40.168Z,18.19
2018-04-08T08:22:40.216Z,18.19
2018-04-08T08:23:40.509Z,18.19
2018-04-08T08:24:40.180Z,18.18
2018-04-08T08:25:40.174Z,18.19
2018-04-08T08:26:40.171Z,18.19
2018-04-08T08:27:40.193Z,18.18
2018-04-08T08:28:40.167Z,18.22
2018-04-08T08:29:40.165Z,18.25
2018-04-08T08:30:40.250Z,18.26
2018-04-08T08:31:40.173Z,18.28
2018-04-08T08:32:40.173Z,18.29
2018-04-08T08:33:40.203Z,18.29
2018-04-08T08:34:40.183Z,18.32
2018-04-08T08:35:40.185Z,18.32
2018-04-08T08:36:40.185Z,18.32
2018-04-08T08:37:40.162Z,18.33
2018-04-08T08:38:40.396Z,18.36
2018-04-08T08:39:40.279Z,18.36
2018-04-08T08:40:40.156Z,18.36
2018-04-08T08:41:40.440Z,18.36
2018-04-08T08:42:40.293Z,18.39
2018-04-08T08:43:40.496Z,18.39
2018-04-08T08:44:40.195Z,18.4
2018-04-08T08:45:40.160Z,18.4
2018-04-08T08:46:40.454Z,18.4
2018-04-08T08:47:40.159Z,18.4
2018-04-08T08:48:40.192Z,18.4
2018-04-08T08:49:40.221Z,18.41
2018-04-08T08:50:40.151Z,18.44
2018-04-08T08:51:40.214Z,18.44
2018-04-08T08:52:40.176Z,18.44
2018-04-08T08:53:40.188Z,18.46
2018-04-08T08:54:40.157Z,18.47
2018-04-08T08:55:40.194Z,18.47
2018-04-08T08:56:40.181Z,18.49
2018-04-08T08:57:40.153Z,18.56
2018-04-08T08:58:40.174Z,18.57
2018-04-08T08:59:40.177Z,18.58
2018-04-08T09:00:40.178Z,18.67
2018-04-08T09:01:40.178Z,18.68
2018-04-08T09:02:40.172Z,18.66
2018-04-08T09:03:40.163Z,18.64
2018-04-08T09:04:40.158Z,18.62
2018-04-08T09:05:40.158Z,18.6
2018-04-08T09:06:40.892Z,18.6
2018-04-08T09:07:40.167Z,18.6
2018-04-08T09:08:40.176Z,18.58
2018-04-08T09:09:40.161Z,18.62
2018-04-08T09:10:40.164Z,18.63
2018-04-08T09:11:40.170Z,18.57
2018-04-08T09:12:40.155Z,18.63
2018-04-08T09:13:40.159Z,18.63
2018-04-08T09:14:40.167Z,18.64
2018-04-08T09:15:40.135Z,18.67
2018-04-08T09:16:40.198Z,18.67
2018-04-08T09:17:40.176Z,18.68
2018-04-08T09:18:40.208Z,18.73
2018-04-08T09:19:40.177Z,18.73
2018-04-08T09:20:40.191Z,18.71
2018-04-08T09:21:40.262Z,18.7
2018-04-08T09:22:40.176Z,18.7
2018-04-08T09:23:40.161Z,18.71
2018-04-08T09:24:40.200Z,18.7
2018-04-08T09:25:40.155Z,18.68
2018-04-08T09:26:40.417Z,18.67
2018-04-08T09:27:40.152Z,18.73
2018-04-08T09:28:40.131Z,18.7
2018-04-08T09:29:40.509Z,18.7
2018-04-08T09:30:40.222Z,18.8
2018-04-08T09:31:40.152Z,18.75
2018-04-08T09:32:40.148Z,18.74
2018-04-08T09:33:40.153Z,18.75
2018-04-08T09:34:40.186Z,18.74
2018-04-08T09:35:40.175Z,18.73
2018-04-08T09:36:40.162Z,18.73
2018-04-08T09:37:40.145Z,18.73
2018-04-08T09:38:40.154Z,18.73
2018-04-08T09:39:40.177Z,18.71
2018-04-08T09:40:40.156Z,18.73
2018-04-08T09:41:40.153Z,18.73
2018-04-08T09:42:40.187Z,18.71
2018-04-08T09:43:40.170Z,18.73
2018-04-08T09:44:40.152Z,18.71
2018-04-08T09:45:40.611Z,18.75
2018-04-08T09:46:40.167Z,18.74
2018-04-08T09:47:40.146Z,18.74
2018-04-08T09:48:40.212Z,18.74
2018-04-08T09:49:40.148Z,18.73
2018-04-08T09:50:40.205Z,18.73
2018-04-08T09:51:40.242Z,18.71
2018-04-08T09:52:40.171Z,18.75
2018-04-08T09:53:40.130Z,18.73
2018-04-08T09:54:40.180Z,18.74
2018-04-08T09:55:40.153Z,18.77
2018-04-08T09:56:40.161Z,18.73
2018-04-08T09:57:40.163Z,18.74
2018-04-08T09:58:40.136Z,18.74
2018-04-08T09:59:40.130Z,18.75
2018-04-08T10:00:40.143Z,18.77
2018-04-08T10:01:40.140Z,18.8
2018-04-08T10:02:40.153Z,18.77
2018-04-08T10:03:40.211Z,18.8
2018-04-08T10:04:40.148Z,18.77
2018-04-08T10:05:40.876Z,18.77
2018-04-08T10:06:40.160Z,18.78
2018-04-08T10:07:40.171Z,18.77
2018-04-08T10:08:40.147Z,18.78
2018-04-08T10:09:40.146Z,18.78
2018-04-08T10:10:22.336Z,18.85
2018-04-08T10:11:22.298Z,18.87
2018-04-08T10:12:22.202Z,18.88
2018-04-08T10:13:22.156Z,18.87
2018-04-08T10:14:22.131Z,18.87
2018-04-08T10:15:22.288Z,18.85
2018-04-08T10:16:15.787Z,18.95
2018-04-08T10:17:15.812Z,18.92
2018-04-08T10:18:15.682Z,18.91
2018-04-08T10:19:15.740Z,18.91
2018-04-08T10:20:15.676Z,18.92
2018-04-08T10:21:15.520Z,18.92
2018-04-08T10:22:00.736Z,18.95
2018-04-08T10:23:01.043Z,18.97
2018-04-08T10:24:00.672Z,18.97
2018-04-08T10:25:00.638Z,18.98
2018-04-08T10:26:00.634Z,19.01
2018-04-08T10:27:00.709Z,19.08
2018-04-08T10:28:00.705Z,19.13
2018-04-08T10:29:01.024Z,19.16
2018-04-08T10:30:00.655Z,19.11
2018-04-08T10:31:00.710Z,19.08
2018-04-08T10:32:00.867Z,19.06
2018-04-08T10:33:00.586Z,19.05
2018-04-08T10:34:00.701Z,19.08
2018-04-08T10:35:00.569Z,19.13
2018-04-08T10:36:00.792Z,19.11
2018-04-08T10:37:00.928Z,19.13
2018-04-08T10:38:00.742Z,19.09
2018-04-08T10:39:00.891Z,19.13
2018-04-08T10:40:00.579Z,19.12
2018-04-08T10:41:00.651Z,19.11
2018-04-08T10:42:00.752Z,19.12
2018-04-08T10:43:00.973Z,19.15
2018-04-08T10:44:00.748Z,19.13
2018-04-08T10:45:00.845Z,19.11
2018-04-08T10:46:00.773Z,19.15
2018-04-08T10:47:01.158Z,19.15
2018-04-08T10:48:00.891Z,19.19
2018-04-08T10:49:00.706Z,19.13
2018-04-08T10:50:00.523Z,19.15
2018-04-08T10:51:00.744Z,19.16
2018-04-08T10:52:00.629Z,19.16
2018-04-08T10:53:00.580Z,19.16
2018-04-08T10:54:00.836Z,19.12
2018-04-08T10:55:00.562Z,19.12
2018-04-08T10:56:00.702Z,19.16
2018-04-08T10:57:00.571Z,19.15
2018-04-08T10:58:00.592Z,19.19
2018-04-08T10:59:12.778Z,19.19
2018-04-08T11:00:12.527Z,19.32
2018-04-08T11:01:12.648Z,19.22
2018-04-08T11:02:12.571Z,19.2
2018-04-08T11:03:12.703Z,19.22
2018-04-08T11:04:12.705Z,19.22
2018-04-08T11:05:12.594Z,19.19
2018-04-08T11:06:12.495Z,19.22
2018-04-08T11:07:12.943Z,19.22
2018-04-08T11:08:12.679Z,19.22
2018-04-08T11:09:12.928Z,19.22
2018-04-08T11:10:12.922Z,19.2
2018-04-08T11:11:12.745Z,19.19
2018-04-08T11:12:12.772Z,19.16
2018-04-08T11:13:12.765Z,19.15
2018-04-08T11:14:12.731Z,19.12
2018-04-08T11:15:12.609Z,19.2
2018-04-08T11:16:12.761Z,19.18
2018-04-08T11:17:12.589Z,19.18
2018-04-08T11:18:12.613Z,19.2
2018-04-08T11:19:12.838Z,19.22
2018-04-08T11:20:13.559Z,19.18
2018-04-08T11:21:12.651Z,19.2
2018-04-08T11:22:12.868Z,19.2
2018-04-08T11:23:12.661Z,19.18
2018-04-08T11:24:12.753Z,19.22
2018-04-08T11:25:12.590Z,19.2
2018-04-08T11:26:12.618Z,19.19
2018-04-08T11:27:12.595Z,19.22
2018-04-08T11:28:12.655Z,19.2
2018-04-08T11:29:12.539Z,19.18
2018-04-08T11:30:12.854Z,19.18
2018-04-08T11:31:12.801Z,19.2
2018-04-08T11:32:12.672Z,19.22
2018-04-08T11:33:12.841Z,19.22
2018-04-08T11:34:12.650Z,19.2
2018-04-08T11:35:12.735Z,19.25
2018-04-08T11:36:12.555Z,19.23
2018-04-08T11:37:12.746Z,19.2
2018-04-08T11:38:12.722Z,19.16
2018-04-08T11:39:12.738Z,19.15
2018-04-08T11:40:12.872Z,19.09
2018-04-08T11:41:13.035Z,19.05
2018-04-08T11:42:12.585Z,19.05
2018-04-08T11:43:12.606Z,19.06
2018-04-08T11:44:12.584Z,19.05
2018-04-08T11:45:12.936Z,19.05
2018-04-08T11:46:12.805Z,19.06
2018-04-08T11:47:13.010Z,19.03
2018-04-08T11:48:12.624Z,19.06
2018-04-08T11:49:12.640Z,19.06
2018-04-08T11:50:12.528Z,19.09
2018-04-08T11:51:12.588Z,19.06
2018-04-08T11:52:12.695Z,19.03
2018-04-08T11:53:12.526Z,19.03
2018-04-08T11:54:12.676Z,19.09
2018-04-08T11:55:12.535Z,19.11
2018-04-08T11:56:12.544Z,19.06
2018-04-08T11:57:12.524Z,19.08
2018-04-08T11:58:12.953Z,19.08
2018-04-08T11:59:12.606Z,19.06
2018-04-08T12:00:12.735Z,19.05
2018-04-08T12:01:12.607Z,19.01
2018-04-08T12:02:12.694Z,19.02
2018-04-08T12:03:12.541Z,19.01
2018-04-08T12:04:12.523Z,18.99
2018-04-08T12:05:12.547Z,18.99
2018-04-08T12:06:12.675Z,18.98
2018-04-08T12:07:12.684Z,18.94
2018-04-08T12:08:12.690Z,18.92
2018-04-08T12:09:12.739Z,18.9
2018-04-08T12:10:12.638Z,18.91
2018-04-08T12:11:12.551Z,18.87
2018-04-08T12:12:12.642Z,18.88
2018-04-08T12:13:12.713Z,18.87
2018-04-08T12:14:12.726Z,18.87
2018-04-08T12:15:12.545Z,18.87
2018-04-08T12:16:12.687Z,18.85
2018-04-08T12:17:12.678Z,18.84
2018-04-08T12:18:12.515Z,18.85
2018-04-08T12:19:12.719Z,18.87
2018-04-08T12:20:12.632Z,18.85
2018-04-08T12:21:12.516Z,18.83
2018-04-08T12:22:12.731Z,18.85
2018-04-08T12:23:12.546Z,18.83
2018-04-08T12:24:12.633Z,18.84
2018-04-08T12:25:12.527Z,18.81
2018-04-08T12:26:12.646Z,18.84
2018-04-08T12:27:12.720Z,18.83
2018-04-08T12:28:12.699Z,18.85
2018-04-08T12:29:12.710Z,18.85
2018-04-08T12:30:12.588Z,18.83
2018-04-08T12:31:12.606Z,18.83
2018-04-08T12:32:12.543Z,18.83
2018-04-08T12:33:12.482Z,18.85
2018-04-08T12:34:12.475Z,18.84
2018-04-08T12:35:12.490Z,18.81
2018-04-08T12:36:12.501Z,18.8
2018-04-08T12:37:12.586Z,18.84
2018-04-08T12:38:12.485Z,18.87
2018-04-08T12:39:12.528Z,18.81
2018-04-08T12:40:12.344Z,18.81
2018-04-08T12:41:12.524Z,18.85
2018-04-08T12:42:12.630Z,18.85
2018-04-08T12:43:12.595Z,18.84
2018-04-08T12:44:12.502Z,18.87
2018-04-08T12:45:12.812Z,18.92
2018-04-08T12:46:12.548Z,18.94
2018-04-08T12:47:12.495Z,18.94
2018-04-08T12:48:12.498Z,18.97
2018-04-08T12:49:12.552Z,18.97
2018-04-08T12:50:12.782Z,18.98
2018-04-08T12:51:12.550Z,18.99
2018-04-08T12:52:12.549Z,19.05
2018-04-08T12:53:12.489Z,19.03
2018-04-08T12:54:12.570Z,19.03
2018-04-08T12:55:12.556Z,19.02